• Join FlightAware (Why Join?)
  • Login
  • US Flag 
02:39PM EDT


 

Airport Tracker/Info


-or-


 

Live Flight TrackerFlight Track Log ✈ SKW6345 ✈ 25-Jun-2013 ✈ KSFO - KBZN

Flight Track Log - Related Links

Times and Time Zones

All times are in EDT time to prevent confusion due to time zone crossing. See the SKW6345 flight status page for this flight to view local times or setup timezone preferences in your user account.

Time Position Orientation Groundspeed Altitude Reporting Facility
EDT Latitude Longitude Course Direction KTS MPH feet Rate Location/Type
11:30AM 37.6167 -122.3333 13° North 165 190 1,500  Level Northern Cal TRACON
11:31AM 37.6000 -122.2667 107° East 255 293 3,700 2,280 Climbing Northern Cal TRACON
11:33AM 37.6758 -122.1386 53° Northeast 289 333 8,500 2,460 Climbing Oakland Center
11:34AM 37.8658 -121.7167 North  Level FlightAware Approximate
11:34AM 37.7633 -122.0742 30° Northeast 302 348 11,300  Level Oakland Center
11:35AM 38.0035 -121.6800 13° North  Level FlightAware Approximate
11:35AM 37.8394 -122.0147 32° Northeast 316 364 13,200  Level Oakland Center
11:36AM 37.9228 -121.9525 30° Northeast 340 391 14,600 1,380 Climbing Oakland Center
11:37AM 38.0106 -121.8839 32° Northeast 369 425 16,100 1,500 Climbing Oakland Center
11:38AM 38.1006 -121.8156 31° Northeast 378 435 17,700 1,440 Climbing Oakland Center
11:39AM 38.1919 -121.7450 31° Northeast 385 443 19,100 1,260 Climbing Oakland Center
11:40AM 38.2844 -121.6733 31° Northeast 391 450 20,300 1,080 Climbing Oakland Center
11:41AM 38.3794 -121.5994 31° Northeast 400 460 21,400 1,020 Climbing Oakland Center
11:42AM 38.4800 -121.5175 33° Northeast 408 470 22,500 1,080 Climbing Oakland Center
11:43AM 38.5917 -121.4258 33° Northeast 416 479 23,600 960 Climbing Oakland Center
11:44AM 38.6894 -121.3436 33° Northeast 422 486 24,500 780 Climbing Oakland Center
11:45AM 38.7822 -121.2678 32° Northeast 427 491 25,200 720 Climbing Oakland Center
11:46AM 38.8839 -121.1831 33° Northeast 432 497 26,000 720 Climbing Oakland Center
11:47AM 38.9864 -121.0967 33° Northeast 437 503 26,700 660 Climbing Oakland Center
11:48AM 39.1106 -120.9917 33° Northeast 441 507 27,400 600 Climbing Oakland Center
11:49AM 39.2153 -120.9019 34° Northeast 449 517 28,000 480 Climbing Oakland Center
11:50AM 39.3214 -120.8125 33° Northeast 453 521 28,400 420 Climbing Oakland Center
11:51AM 39.4278 -120.7222 33° Northeast 456 525 28,900 480 Climbing Oakland Center
11:52AM 39.5344 -120.6308 33° Northeast 459 528 29,400 480 Climbing Oakland Center
11:53AM 39.6411 -120.5394 33° Northeast 459 528 29,900 480 Climbing Oakland Center
11:54AM 39.7478 -120.4494 33° Northeast 458 527 30,400 480 Climbing Oakland Center
11:56AM 39.8544 -120.3572 34° Northeast 461 531 30,900 240 Climbing Oakland Center
11:57AM 39.9619 -120.2633 34° Northeast 464 534 31,000  Climbing Oakland Center
11:58AM 40.0842 -120.1586 33° Northeast 475 547 31,000 180 Level Oakland Center
11:59AM 40.1978 -120.0592 34° Northeast 486 559 31,400 420 Climbing Oakland Center
12:00PM 40.3097 -119.9603 34° Northeast 484 557 31,900 480 Climbing Oakland Center
12:01PM 40.4217 -119.8628 34° Northeast 482 555 32,400 480 Climbing Oakland Center
12:02PM 40.5328 -119.7642 34° Northeast 481 554 32,900 240 Climbing Oakland Center
12:03PM 40.6444 -119.6639 34° Northeast 480 552 33,000  Climbing Oakland Center
12:04PM 40.7553 -119.5650 34° Northeast 483 556 33,000  Level Oakland Center
12:05PM 40.8803 -119.4553 34° Northeast 492 566 33,000  Level Oakland Center
12:06PM 41.0072 -119.3414 34° Northeast 493 567 33,000  Level Salt Lake Center
12:07PM 41.1178 -119.2428 34° Northeast 495 570 33,000  Level Salt Lake Center
12:08PM 41.2353 -119.1142 39° Northeast 493 567 33,000  Level Salt Lake Center
12:09PM 41.3217 -118.9814 49° Northeast 493 567 33,000  Level Salt Lake Center
12:10PM 41.4217 -118.8286 49° Northeast 492 566 33,000  Level Salt Lake Center
12:11PM 41.5078 -118.6972 49° Northeast 490 564 33,000  Level Salt Lake Center
12:12PM 41.5908 -118.5656 50° Northeast 487 560 33,000  Level Salt Lake Center
12:13PM 41.6908 -118.4100 49° Northeast 490 564 33,000  Level Salt Lake Center
12:14PM 41.7767 -118.2747 50° Northeast 496 571 33,000  Level Salt Lake Center
12:15PM 41.8761 -118.1167 50° Northeast 495 570 33,000  Level Salt Lake Center
12:16PM 41.9619 -117.9808 50° Northeast 497 572 33,000  Level Salt Lake Center
12:17PM 42.0619 -117.8211 50° Northeast 499 574 33,000  Level Salt Lake Center
12:18PM 42.1475 -117.6839 50° Northeast 498 573 33,000  Level Salt Lake Center
12:19PM 42.2328 -117.5464 50° Northeast 499 574 33,000  Level Salt Lake Center
12:20PM 42.3339 -117.3778 51° Northeast 501 577 33,000  Level Salt Lake Center
12:21PM 42.4181 -117.2389 51° Northeast 498 573 33,000  Level Salt Lake Center
12:22PM 42.5164 -117.0764 51° Northeast 499 574 33,000  Level Salt Lake Center
12:23PM 42.6028 -116.9358 50° Northeast 505 581 33,000  Level Salt Lake Center
12:24PM 42.7003 -116.7725 51° Northeast 502 578 33,000  Level Salt Lake Center
12:25PM 42.7853 -116.6322 50° Northeast 503 579 33,000  Level Salt Lake Center
12:26PM 42.8842 -116.4667 51° Northeast 504 580 33,000  Level Salt Lake Center
12:27PM 42.9689 -116.3264 50° Northeast 503 579 33,000  Level Salt Lake Center
12:28PM 43.0681 -116.1594 51° Northeast 506 582 33,000  Level Salt Lake Center
12:30PM 43.1533 -116.0158 51° Northeast 509 586 33,000  Level Salt Lake Center
12:31PM 43.2506 -115.8481 51° Northeast 504 580 33,000  Level Salt Lake Center
12:32PM 43.3344 -115.7036 51° Northeast 505 581 33,000  Level Salt Lake Center
12:33PM 43.4178 -115.5589 52° Northeast 505 581 33,000  Level Salt Lake Center
12:34PM 43.5142 -115.3911 52° Northeast 503 579 33,000  Level Salt Lake Center
12:35PM 43.5967 -115.2469 52° Northeast 501 577 33,000  Level Salt Lake Center
12:36PM 43.6944 -115.0772 51° Northeast 503 579 33,000  Level Salt Lake Center
12:37PM 43.7767 -114.9322 52° Northeast 501 577 33,000  Level Salt Lake Center
12:38PM 43.8728 -114.7622 52° Northeast 501 577 33,000  Level Salt Lake Center
12:39PM 43.9547 -114.6158 52° Northeast 503 579 33,000  Level Salt Lake Center
12:40PM 44.0489 -114.4461 52° Northeast 498 573 33,000  Level Salt Lake Center
12:41PM 44.1308 -114.3003 52° Northeast 499 574 33,000  Level Salt Lake Center
12:42PM 44.2242 -114.1289 53° Northeast 500 575 33,000  Level Salt Lake Center
12:43PM 44.3028 -113.9811 53° Northeast 500 575 33,000  Level Salt Lake Center
12:44PM 44.3939 -113.8142 53° Northeast 500 575 33,000  Level Salt Lake Center
12:45PM 44.4761 -113.6653 52° Northeast 504 580 33,000  Level Salt Lake Center
12:46PM 44.5689 -113.4908 53° Northeast 502 578 33,000  Level Salt Lake Center
12:47PM 44.6483 -113.3417 53° Northeast 499 574 33,000  Level Salt Lake Center
12:48PM 44.7422 -113.1658 53° Northeast 502 578 33,000  Level Salt Lake Center
12:49PM 44.8225 -113.0150 53° Northeast 503 579 33,000 -180 Level Salt Lake Center
12:50PM 44.9031 -112.8644 53° Northeast 503 579 32,700 -1,860 Descending Salt Lake Center
12:51PM 45.0003 -112.6803 53° Northeast 519 597 29,200 -3,120 Descending Salt Lake Center
12:52PM 45.0814 -112.5250 53° Northeast 512 589 26,300 -3,060 Descending Salt Lake Center
12:53PM 45.1714 -112.3533 53° Northeast 490 564 22,900 -3,060 Descending Salt Lake Center
12:54PM 45.2431 -112.2117 54° Northeast 468 539 20,000 -2,820 Descending Salt Lake Center
12:55PM 45.3119 -112.0772 54° Northeast 437 503 17,200 -2,880 Descending Salt Lake Center
12:56PM 45.3783 -111.9450 54° Northeast 418 481 14,100 -2,040 Descending Salt Lake Center
12:57PM 45.4547 -111.7972 54° Northeast 392 451 13,000 -600 Descending Salt Lake Center
12:58PM 45.5128 -111.6814 54° Northeast 366 421 12,900 -900 Descending Salt Lake Center
12:59PM 45.5717 -111.5636 54° Northeast 364 419 11,200 -1,200 Descending Salt Lake Center
01:00PM 45.6283 -111.4492 55° Northeast 359 413 10,500 -1,020 Descending Salt Lake Center
01:01PM 45.6764 -111.3411 57° Northeast 341 392 9,200 -1,260 Descending Salt Lake Center
01:03PM 45.6942 -111.2278 77° East 314 361 8,000 -780 Descending Salt Lake Center
01:04PM 45.7006 -111.1358 84° East 259 298 7,600 -420 Descending Salt Lake Center